Glenwood, MN (56334)

10:41 PM CST on December 03, 2016 (GMT -0600)
KMGK (Magic 107.1) FM | | Change Station

Elev 1168 ft 45.65 °N, 95.39 °W | Updated 0 second ago

Light Snow
Light Snow
32.4 °F
Feels Like 28 °F
N
5.0
Wind Variable Wind from SSE
Gusts 12.0 mph

Today
High -- | Low -- °F
--% Chance of Precip.
Yesterday
High -- | Low -- °F
Precip. -- in
Pressure 30.02 in
Visibility 4.0 miles
Clouds Overcast 600 ft
Windchill 28 °F
Dew Point 32 °F
Humidity 99%
Rainfall 0.00 in
Snow Depth Not available.
7:44 AM 4:38 PM
Waxing Crescent, 19% visible
METAR KGHW 040434Z AUTO 15011G17KT 4SM -SN OVC006 M01/M01 A3002 RMK AO2
Pressure 30.02 in
Visibility 4.0 miles
Clouds Overcast 600 ft
Windchill 28 °F
Dew Point 32 °F
Humidity 99%
Rainfall 0.00 in
Snow Depth Not available.
7:44 AM 4:38 PM
Waxing Crescent, 19% visible
METAR KGHW 040434Z AUTO 15011G17KT 4SM -SN OVC006 M01/M01 A3002 RMK AO2

10-Day Weather Forecast

Almanac

Astronomy

Dec. 03, 2016 Rise Set
Actual Time
Civil Twilight
Nautical Twilight
Astronomical Twilight
Moon
Length of Visible Light
Length of Day
Tomorrow will be .
, % of the Moon is Illuminated

Today's Extremes

State Highs State Lows

Community

WunderPhotos

Upload Photos

1,955,583 photos uploaded!

WunderBlog® & News

Nearby

Air Quality

  Air Quality AQ Index Pollutant
Not available.

Snow Depth

Station Depth Elevation

Earthquake Activity

City Distance Mag. Time & Date
Minimum magnitude displayed is 2.5.

Coastal Water Temperatures

Place Temperature

Stations

Nearby Weather Stations

Station Location Temp. Windchill Dew Point Humidity Wind Precip. Elev Updated Type
                   

Watches & Warnings

There are currently no watches in effect.